Mound, Minnesota
Current Conditions -  °F | °C
As of 12:53 AM on Wednesday 22 Oct 2014 (Local Time) from KFCM Reporting Station
Clear Clear  
Wind Chill: 40°   Ceiling: Unl
Heat Index: 46°   Visibility: 10mi
Dew Point: 38°   Wind: 13mph
Humidity: 73%   Direction: 130°SE
Pressure: 30.15"   Gusts: NA
Location:  44.93°N, 93.66°W
Report Text: KFCM 220553Z AUTO 13011KT 10SM CLR 08/03 A3015 RMK AO2 SLP214 T00780033 10122 20078 401500033 58001
Loading
Personal Weather Stations






























Interactive Weather Map
Tropical Storm Tracking
New forecast layout! Learn more

10-Day Weather Forecast

Advertisements
Track Severe Weather on mobile